sensor_id;sensor_type;location;lat;lon;timestamp;pressure;altitude;pressure_sealevel;temperature;humidity
59272;BME280;45043;51.068;7.026;2022-09-09T00:05:23;99735.03;;;15.39;57.19
59272;BME280;45043;51.068;7.026;2022-09-09T00:08:44;99731.69;;;15.49;56.73
59272;BME280;45043;51.068;7.026;2022-09-09T00:12:23;99726.34;;;15.49;56.82
59272;BME280;45043;51.068;7.026;2022-09-09T00:15:40;99715.41;;;15.50;56.38
59272;BME280;45043;51.068;7.026;2022-09-09T00:19:07;99705.84;;;15.54;56.35
59272;BME280;45043;51.068;7.026;2022-09-09T00:22:22;99703.16;;;15.54;56.56
59272;BME280;45043;51.068;7.026;2022-09-09T00:25:32;99707.19;;;15.57;56.90
59272;BME280;45043;51.068;7.026;2022-09-09T00:28:39;99707.69;;;15.54;56.78
59272;BME280;45043;51.068;7.026;2022-09-09T00:31:41;99709.00;;;15.51;56.72
59272;BME280;45043;51.068;7.026;2022-09-09T00:34:52;99705.28;;;15.52;56.43
59272;BME280;45043;51.068;7.026;2022-09-09T00:37:57;99705.00;;;15.54;56.81
59272;BME280;45043;51.068;7.026;2022-09-09T00:44:31;99707.22;;;15.40;57.15
59272;BME280;45043;51.068;7.026;2022-09-09T00:47:43;99708.25;;;15.39;57.29
59272;BME280;45043;51.068;7.026;2022-09-09T00:50:59;99708.31;;;15.22;57.62
59272;BME280;45043;51.068;7.026;2022-09-09T00:57:29;99708.50;;;14.99;58.50
59272;BME280;45043;51.068;7.026;2022-09-09T01:00:38;99711.97;;;14.82;58.47
59272;BME280;45043;51.068;7.026;2022-09-09T01:06:43;99708.09;;;14.73;58.81
59272;BME280;45043;51.068;7.026;2022-09-09T01:10:07;99699.28;;;14.73;58.65
59272;BME280;45043;51.068;7.026;2022-09-09T01:13:15;99704.22;;;14.81;58.71
59272;BME280;45043;51.068;7.026;2022-09-09T01:16:17;99707.38;;;14.78;58.52
59272;BME280;45043;51.068;7.026;2022-09-09T01:19:25;99711.00;;;14.72;58.68
59272;BME280;45043;51.068;7.026;2022-09-09T01:26:07;99714.69;;;14.54;58.69
59272;BME280;45043;51.068;7.026;2022-09-09T01:29:15;99716.06;;;14.56;58.09
59272;BME280;45043;51.068;7.026;2022-09-09T01:32:57;99705.84;;;14.53;58.10
59272;BME280;45043;51.068;7.026;2022-09-09T01:36:04;99705.16;;;14.58;57.76
59272;BME280;45043;51.068;7.026;2022-09-09T01:39:13;99703.50;;;14.57;57.84
59272;BME280;45043;51.068;7.026;2022-09-09T01:42:16;99708.03;;;14.56;57.61
59272;BME280;45043;51.068;7.026;2022-09-09T01:45:17;99712.34;;;14.57;57.46
59272;BME280;45043;51.068;7.026;2022-09-09T01:48:18;99705.16;;;14.58;57.44
59272;BME280;45043;51.068;7.026;2022-09-09T01:51:33;99706.44;;;14.55;57.53
59272;BME280;45043;51.068;7.026;2022-09-09T01:54:38;99708.03;;;14.56;57.62
59272;BME280;45043;51.068;7.026;2022-09-09T01:58:02;99712.72;;;14.49;57.87
59272;BME280;45043;51.068;7.026;2022-09-09T02:04:42;99719.22;;;14.53;58.07
59272;BME280;45043;51.068;7.026;2022-09-09T02:07:50;99717.28;;;14.49;58.02
59272;BME280;45043;51.068;7.026;2022-09-09T02:11:18;99718.56;;;14.46;58.33
59272;BME280;45043;51.068;7.026;2022-09-09T02:14:36;99714.19;;;14.40;58.31
59272;BME280;45043;51.068;7.026;2022-09-09T02:17:41;99716.84;;;14.40;58.31
59272;BME280;45043;51.068;7.026;2022-09-09T02:20:47;99708.84;;;14.40;58.29
59272;BME280;45043;51.068;7.026;2022-09-09T02:23:49;99712.72;;;14.49;58.26
59272;BME280;45043;51.068;7.026;2022-09-09T02:26:54;99709.19;;;14.44;58.02
59272;BME280;45043;51.068;7.026;2022-09-09T02:29:57;99709.88;;;14.39;58.55
59272;BME280;45043;51.068;7.026;2022-09-09T02:33:14;99706.66;;;14.37;58.41
59272;BME280;45043;51.068;7.026;2022-09-09T02:36:24;99708.84;;;14.40;58.38
59272;BME280;45043;51.068;7.026;2022-09-09T02:39:26;99710.94;;;14.38;58.39
59272;BME280;45043;51.068;7.026;2022-09-09T02:42:26;99713.38;;;14.40;58.14
59272;BME280;45043;51.068;7.026;2022-09-09T02:45:47;99714.19;;;14.40;58.46
59272;BME280;45043;51.068;7.026;2022-09-09T02:49:10;99706.72;;;14.42;58.45
59272;BME280;45043;51.068;7.026;2022-09-09T02:52:15;99703.56;;;14.45;58.36
59272;BME280;45043;51.068;7.026;2022-09-09T02:55:35;99708.53;;;14.53;58.08
59272;BME280;45043;51.068;7.026;2022-09-09T02:58:38;99709.50;;;14.47;58.68
59272;BME280;45043;51.068;7.026;2022-09-09T03:01:40;99700.72;;;14.35;58.16
59272;BME280;45043;51.068;7.026;2022-09-09T03:04:43;99700.16;;;14.33;58.73
59272;BME280;45043;51.068;7.026;2022-09-09T03:07:45;99695.88;;;14.32;58.54
59272;BME280;45043;51.068;7.026;2022-09-09T03:10:45;99689.22;;;14.34;58.43
59272;BME280;45043;51.068;7.026;2022-09-09T03:13:48;99691.09;;;14.34;58.29
59272;BME280;45043;51.068;7.026;2022-09-09T03:16:53;99688.19;;;14.36;58.34
59272;BME280;45043;51.068;7.026;2022-09-09T03:19:54;99690.03;;;14.35;58.49
59272;BME280;45043;51.068;7.026;2022-09-09T03:22:56;99690.88;;;14.36;58.51
59272;BME280;45043;51.068;7.026;2022-09-09T03:25:56;99690.53;;;14.32;58.32
59272;BME280;45043;51.068;7.026;2022-09-09T03:29:07;99689.16;;;14.29;58.77
59272;BME280;45043;51.068;7.026;2022-09-09T03:32:08;99684.84;;;14.28;58.71
59272;BME280;45043;51.068;7.026;2022-09-09T03:35:11;99683.31;;;14.32;58.78
59272;BME280;45043;51.068;7.026;2022-09-09T03:38:11;99694.56;;;14.34;58.78
59272;BME280;45043;51.068;7.026;2022-09-09T03:41:12;99693.75;;;14.34;58.56
59272;BME280;45043;51.068;7.026;2022-09-09T03:44:13;99699.56;;;14.31;58.92
59272;BME280;45043;51.068;7.026;2022-09-09T03:47:20;99697.50;;;14.33;58.75
59272;BME280;45043;51.068;7.026;2022-09-09T03:50:23;99689.38;;;14.28;58.63
59272;BME280;45043;51.068;7.026;2022-09-09T03:53:24;99695.28;;;14.30;58.58
59272;BME280;45043;51.068;7.026;2022-09-09T03:56:25;99698.44;;;14.27;58.49
59272;BME280;45043;51.068;7.026;2022-09-09T03:59:27;99684.03;;;14.28;58.75
59272;BME280;45043;51.068;7.026;2022-09-09T04:02:27;99695.88;;;14.32;58.58
59272;BME280;45043;51.068;7.026;2022-09-09T04:05:28;99691.56;;;14.31;58.74
59272;BME280;45043;51.068;7.026;2022-09-09T04:08:29;99700.06;;;14.28;58.88
59272;BME280;45043;51.068;7.026;2022-09-09T04:11:34;99691.41;;;14.21;58.99
59272;BME280;45043;51.068;7.026;2022-09-09T04:14:34;99691.97;;;14.23;58.93
59272;BME280;45043;51.068;7.026;2022-09-09T04:17:37;99686.28;;;14.19;58.89
59272;BME280;45043;51.068;7.026;2022-09-09T04:20:38;99683.88;;;14.18;58.93
59272;BME280;45043;51.068;7.026;2022-09-09T04:23:39;99689.28;;;14.23;58.79
59272;BME280;45043;51.068;7.026;2022-09-09T04:26:40;99679.00;;;14.31;58.73
59272;BME280;45043;51.068;7.026;2022-09-09T04:29:41;99678.72;;;14.45;58.89
59272;BME280;45043;51.068;7.026;2022-09-09T04:32:42;99691.09;;;14.63;57.99
59272;BME280;45043;51.068;7.026;2022-09-09T04:35:45;99682.97;;;14.74;57.87
59272;BME280;45043;51.068;7.026;2022-09-09T04:38:46;99691.38;;;14.83;57.83
59272;BME280;45043;51.068;7.026;2022-09-09T04:41:48;99690.09;;;14.86;57.34
59272;BME280;45043;51.068;7.026;2022-09-09T04:44:50;99694.72;;;14.90;57.04
59272;BME280;45043;51.068;7.026;2022-09-09T04:47:52;99704.03;;;15.04;56.63
59272;BME280;45043;51.068;7.026;2022-09-09T04:50:54;99700.63;;;15.09;56.81
59272;BME280;45043;51.068;7.026;2022-09-09T04:53:59;99692.47;;;15.21;56.40
59272;BME280;45043;51.068;7.026;2022-09-09T04:57:00;99700.44;;;15.16;56.35
59272;BME280;45043;51.068;7.026;2022-09-09T05:00:00;99708.94;;;15.29;56.22
59272;BME280;45043;51.068;7.026;2022-09-09T05:03:07;99697.97;;;15.31;55.75
59272;BME280;45043;51.068;7.026;2022-09-09T05:06:15;99706.59;;;15.33;56.17
59272;BME280;45043;51.068;7.026;2022-09-09T05:09:15;99697.81;;;15.38;55.64
59272;BME280;45043;51.068;7.026;2022-09-09T05:12:18;99692.88;;;15.29;55.38
59272;BME280;45043;51.068;7.026;2022-09-09T05:15:24;99703.97;;;15.38;55.30
59272;BME280;45043;51.068;7.026;2022-09-09T05:18:24;99701.25;;;15.33;55.83
59272;BME280;45043;51.068;7.026;2022-09-09T05:21:25;99683.75;;;15.25;55.44
59272;BME280;45043;51.068;7.026;2022-09-09T05:24:27;99698.09;;;15.19;55.80
59272;BME280;45043;51.068;7.026;2022-09-09T05:27:30;99688.63;;;15.12;55.74
59272;BME280;45043;51.068;7.026;2022-09-09T05:30:33;99696.25;;;15.03;56.29
59272;BME280;45043;51.068;7.026;2022-09-09T05:33:36;99693.25;;;14.99;56.52
59272;BME280;45043;51.068;7.026;2022-09-09T05:36:37;99699.66;;;14.98;57.25
59272;BME280;45043;51.068;7.026;2022-09-09T05:39:38;99689.13;;;14.92;57.41
59272;BME280;45043;51.068;7.026;2022-09-09T05:42:39;99690.59;;;14.82;57.51
59272;BME280;45043;51.068;7.026;2022-09-09T05:45:40;99685.91;;;14.73;57.75
59272;BME280;45043;51.068;7.026;2022-09-09T05:48:43;99688.31;;;14.74;58.17
59272;BME280;45043;51.068;7.026;2022-09-09T05:51:44;99694.31;;;14.65;58.32
59272;BME280;45043;51.068;7.026;2022-09-09T05:54:47;99696.88;;;14.59;58.64
59272;BME280;45043;51.068;7.026;2022-09-09T05:57:50;99710.66;;;14.68;58.54
59272;BME280;45043;51.068;7.026;2022-09-09T06:00:52;99697.56;;;14.67;58.30
59272;BME280;45043;51.068;7.026;2022-09-09T06:03:53;99711.47;;;14.69;58.67
59272;BME280;45043;51.068;7.026;2022-09-09T06:06:56;99689.06;;;14.70;58.67
59272;BME280;45043;51.068;7.026;2022-09-09T06:09:57;99701.13;;;14.89;58.26
59272;BME280;45043;51.068;7.026;2022-09-09T06:12:59;99695.94;;;14.82;58.03
59272;BME280;45043;51.068;7.026;2022-09-09T06:16:01;99709.72;;;14.74;58.15
59272;BME280;45043;51.068;7.026;2022-09-09T06:19:02;99701.28;;;14.66;58.62
59272;BME280;45043;51.068;7.026;2022-09-09T06:22:06;99698.50;;;14.61;58.70
59272;BME280;45043;51.068;7.026;2022-09-09T06:25:09;99696.09;;;14.76;58.58
59272;BME280;45043;51.068;7.026;2022-09-09T06:28:10;99707.28;;;14.90;58.24
59272;BME280;45043;51.068;7.026;2022-09-09T06:31:12;99706.31;;;14.96;57.92
59272;BME280;45043;51.068;7.026;2022-09-09T06:34:13;99700.16;;;14.95;57.91
59272;BME280;45043;51.068;7.026;2022-09-09T06:37:16;99703.53;;;15.08;56.99
59272;BME280;45043;51.068;7.026;2022-09-09T06:40:21;99705.31;;;15.19;57.20
59272;BME280;45043;51.068;7.026;2022-09-09T06:43:22;99710.34;;;15.32;56.93
59272;BME280;45043;51.068;7.026;2022-09-09T06:46:29;99715.81;;;15.42;56.54
59272;BME280;45043;51.068;7.026;2022-09-09T06:49:31;99703.75;;;15.40;56.43
59272;BME280;45043;51.068;7.026;2022-09-09T06:52:33;99709.81;;;15.52;56.40
59272;BME280;45043;51.068;7.026;2022-09-09T06:55:34;99702.09;;;15.39;56.61
59272;BME280;45043;51.068;7.026;2022-09-09T06:58:39;99714.38;;;15.51;55.93
59272;BME280;45043;51.068;7.026;2022-09-09T07:01:56;99700.22;;;15.56;55.94
59272;BME280;45043;51.068;7.026;2022-09-09T07:04:58;99708.22;;;15.73;55.53
59272;BME280;45043;51.068;7.026;2022-09-09T07:07:59;99700.41;;;15.93;54.83
59272;BME280;45043;51.068;7.026;2022-09-09T07:11:05;99708.09;;;16.12;54.15
59272;BME280;45043;51.068;7.026;2022-09-09T07:14:09;99710.34;;;16.20;53.88
59272;BME280;45043;51.068;7.026;2022-09-09T07:17:13;99706.97;;;16.30;53.54
59272;BME280;45043;51.068;7.026;2022-09-09T07:20:14;99715.56;;;16.59;52.91
59272;BME280;45043;51.068;7.026;2022-09-09T07:23:15;99714.59;;;16.70;52.27
59272;BME280;45043;51.068;7.026;2022-09-09T07:26:19;99720.56;;;16.77;52.04
59272;BME280;45043;51.068;7.026;2022-09-09T07:29:21;99721.06;;;16.74;51.43
59272;BME280;45043;51.068;7.026;2022-09-09T07:32:22;99718.09;;;16.70;51.25
59272;BME280;45043;51.068;7.026;2022-09-09T07:35:23;99724.97;;;16.61;50.69
59272;BME280;45043;51.068;7.026;2022-09-09T07:38:24;99733.19;;;16.49;50.96
59272;BME280;45043;51.068;7.026;2022-09-09T07:41:29;99730.16;;;16.41;50.62
59272;BME280;45043;51.068;7.026;2022-09-09T07:44:31;99730.19;;;16.46;50.52
59272;BME280;45043;51.068;7.026;2022-09-09T07:47:39;99729.38;;;16.45;50.66
59272;BME280;45043;51.068;7.026;2022-09-09T07:50:41;99717.56;;;16.41;50.88
59272;BME280;45043;51.068;7.026;2022-09-09T07:53:43;99741.22;;;16.49;50.07
59272;BME280;45043;51.068;7.026;2022-09-09T07:56:44;99734.94;;;16.39;50.26
59272;BME280;45043;51.068;7.026;2022-09-09T07:59:46;99730.16;;;16.41;49.55
59272;BME280;45043;51.068;7.026;2022-09-09T08:02:47;99744.00;;;16.60;49.65
59272;BME280;45043;51.068;7.026;2022-09-09T08:05:49;99742.44;;;16.64;49.16
59272;BME280;45043;51.068;7.026;2022-09-09T08:08:50;99744.28;;;16.58;47.98
59272;BME280;45043;51.068;7.026;2022-09-09T08:11:51;99736.63;;;16.45;48.22
59272;BME280;45043;51.068;7.026;2022-09-09T08:14:52;99748.13;;;16.40;48.34
59272;BME280;45043;51.068;7.026;2022-09-09T08:17:56;99752.13;;;16.43;48.52
59272;BME280;45043;51.068;7.026;2022-09-09T08:20:57;99741.38;;;16.38;47.97
59272;BME280;45043;51.068;7.026;2022-09-09T08:24:00;99744.84;;;16.38;47.59
59272;BME280;45043;51.068;7.026;2022-09-09T08:27:01;99737.63;;;16.39;47.63
59272;BME280;45043;51.068;7.026;2022-09-09T08:30:04;99744.66;;;16.45;47.40
59272;BME280;45043;51.068;7.026;2022-09-09T08:33:05;99731.53;;;16.43;47.42
59272;BME280;45043;51.068;7.026;2022-09-09T08:36:17;99745.56;;;16.56;47.25
59272;BME280;45043;51.068;7.026;2022-09-09T08:39:20;99741.28;;;16.55;46.56
59272;BME280;45043;51.068;7.026;2022-09-09T08:42:41;99740.41;;;16.49;46.53
59272;BME280;45043;51.068;7.026;2022-09-09T08:46:01;99741.81;;;16.57;46.48
59272;BME280;45043;51.068;7.026;2022-09-09T08:49:19;99738.69;;;16.65;45.63
59272;BME280;45043;51.068;7.026;2022-09-09T08:52:29;99748.41;;;16.71;45.81
59272;BME280;45043;51.068;7.026;2022-09-09T08:58:47;99766.16;;;16.77;45.20
59272;BME280;45043;51.068;7.026;2022-09-09T09:05:23;99760.19;;;16.70;44.20
59272;BME280;45043;51.068;7.026;2022-09-09T09:08:31;99761.09;;;16.81;43.40
59272;BME280;45043;51.068;7.026;2022-09-09T09:11:39;99757.00;;;16.73;42.53
59272;BME280;45043;51.068;7.026;2022-09-09T09:14:42;99758.72;;;16.84;42.66
59272;BME280;45043;51.068;7.026;2022-09-09T09:17:44;99762.50;;;16.88;42.87
59272;BME280;45043;51.068;7.026;2022-09-09T09:24:00;99771.97;;;17.01;42.22
59272;BME280;45043;51.068;7.026;2022-09-09T09:27:13;99762.06;;;17.02;41.45
59272;BME280;45043;51.068;7.026;2022-09-09T09:30:22;99760.59;;;17.16;41.99
59272;BME280;45043;51.068;7.026;2022-09-09T09:33:44;99764.34;;;17.15;41.31
59272;BME280;45043;51.068;7.026;2022-09-09T09:36:56;99763.69;;;17.03;42.00
59272;BME280;45043;51.068;7.026;2022-09-09T09:40:26;99755.88;;;17.01;42.49
59272;BME280;45043;51.068;7.026;2022-09-09T09:43:30;99772.50;;;16.98;42.24
59272;BME280;45043;51.068;7.026;2022-09-09T09:46:34;99757.16;;;16.93;42.45
59272;BME280;45043;51.068;7.026;2022-09-09T09:49:56;99770.00;;;16.91;42.82
59272;BME280;45043;51.068;7.026;2022-09-09T09:53:03;99771.97;;;17.01;42.61
59272;BME280;45043;51.068;7.026;2022-09-09T09:56:13;99766.09;;;17.04;42.74
59272;BME280;45043;51.068;7.026;2022-09-09T10:02:38;99774.97;;;17.05;42.68
59272;BME280;45043;51.068;7.026;2022-09-09T10:05:45;99776.56;;;17.06;42.93
59272;BME280;45043;51.068;7.026;2022-09-09T10:08:46;99771.31;;;17.16;42.58
59272;BME280;45043;51.068;7.026;2022-09-09T10:15:23;99757.78;;;17.38;42.41
59272;BME280;45043;51.068;7.026;2022-09-09T10:18:42;99765.09;;;17.48;42.00
59272;BME280;45043;51.068;7.026;2022-09-09T10:31:29;99759.09;;;17.35;42.44
59272;BME280;45043;51.068;7.026;2022-09-09T10:34:53;99761.75;;;17.25;41.99
59272;BME280;45043;51.068;7.026;2022-09-09T10:38:27;99754.44;;;17.20;42.81
59272;BME280;45043;51.068;7.026;2022-09-09T10:45:20;99745.66;;;17.30;42.07
59272;BME280;45043;51.068;7.026;2022-09-09T10:52:09;99738.72;;;17.39;42.05
59272;BME280;45043;51.068;7.026;2022-09-09T10:55:20;99737.34;;;17.32;41.37
59272;BME280;45043;51.068;7.026;2022-09-09T10:58:31;99747.75;;;17.23;42.15
59272;BME280;45043;51.068;7.026;2022-09-09T11:02:13;99746.69;;;17.24;41.64
59272;BME280;45043;51.068;7.026;2022-09-09T11:06:03;99736.53;;;17.31;41.52
59272;BME280;45043;51.068;7.026;2022-09-09T11:08:43;99740.34;;;17.40;41.85
59272;BME280;45043;51.068;7.026;2022-09-09T11:11:54;99730.19;;;17.48;41.16
59272;BME280;45043;51.068;7.026;2022-09-09T11:15:01;99721.34;;;17.52;41.14
59272;BME280;45043;51.068;7.026;2022-09-09T11:18:06;99732.97;;;17.63;41.21
59272;BME280;45043;51.068;7.026;2022-09-09T11:21:26;99735.13;;;17.71;41.41
59272;BME280;45043;51.068;7.026;2022-09-09T11:24:41;99731.88;;;17.64;40.86
59272;BME280;45043;51.068;7.026;2022-09-09T11:37:52;99729.81;;;17.29;41.60
59272;BME280;45043;51.068;7.026;2022-09-09T11:41:04;99725.06;;;17.09;40.98
59272;BME280;45043;51.068;7.026;2022-09-09T11:44:19;99733.91;;;17.04;41.34
59272;BME280;45043;51.068;7.026;2022-09-09T11:47:29;99727.75;;;17.09;40.94
59272;BME280;45043;51.068;7.026;2022-09-09T11:50:35;99735.91;;;17.19;40.82
59272;BME280;45043;51.068;7.026;2022-09-09T11:54:25;99724.56;;;17.12;40.52
59272;BME280;45043;51.068;7.026;2022-09-09T11:57:25;99729.97;;;17.17;40.39
59272;BME280;45043;51.068;7.026;2022-09-09T12:00:35;99731.53;;;17.08;40.54
59272;BME280;45043;51.068;7.026;2022-09-09T12:03:46;99731.81;;;17.11;40.75
59272;BME280;45043;51.068;7.026;2022-09-09T12:06:52;99727.31;;;17.17;40.56
59272;BME280;45043;51.068;7.026;2022-09-09T12:10:27;99725.63;;;17.11;40.92
59272;BME280;45043;51.068;7.026;2022-09-09T12:13:29;99726.78;;;17.15;40.94
59272;BME280;45043;51.068;7.026;2022-09-09T12:16:36;99727.56;;;17.15;40.68
59272;BME280;45043;51.068;7.026;2022-09-09T12:19:38;99725.19;;;17.19;40.36
59272;BME280;45043;51.068;7.026;2022-09-09T12:32:22;99719.13;;;17.02;41.05
59272;BME280;45043;51.068;7.026;2022-09-09T12:35:27;99729.38;;;17.10;40.64
59272;BME280;45043;51.068;7.026;2022-09-09T12:38:35;99726.16;;;17.08;40.36
59272;BME280;45043;51.068;7.026;2022-09-09T12:41:36;99732.94;;;17.15;40.63
59272;BME280;45043;51.068;7.026;2022-09-09T12:44:37;99734.31;;;17.18;40.85
59272;BME280;45043;51.068;7.026;2022-09-09T12:47:45;99713.38;;;17.20;40.49
59272;BME280;45043;51.068;7.026;2022-09-09T12:50:50;99717.97;;;17.25;40.49
59272;BME280;45043;51.068;7.026;2022-09-09T12:53:51;99709.88;;;17.19;40.41
59272;BME280;45043;51.068;7.026;2022-09-09T12:56:52;99698.88;;;17.21;40.87
59272;BME280;45043;51.068;7.026;2022-09-09T13:00:07;99717.66;;;17.16;40.63
59272;BME280;45043;51.068;7.026;2022-09-09T13:03:17;99745.44;;;17.05;42.08
59272;BME280;45043;51.068;7.026;2022-09-09T13:06:26;99755.97;;;16.79;46.17
59272;BME280;45043;51.068;7.026;2022-09-09T13:09:27;99738.69;;;16.65;47.81
59272;BME280;45043;51.068;7.026;2022-09-09T13:12:27;99751.72;;;16.83;48.45
59272;BME280;45043;51.068;7.026;2022-09-09T13:15:28;99727.13;;;17.29;48.51
59272;BME280;45043;51.068;7.026;2022-09-09T13:18:32;99731.66;;;17.76;47.55
59272;BME280;45043;51.068;7.026;2022-09-09T13:21:36;99726.66;;;17.94;46.73
59272;BME280;45043;51.068;7.026;2022-09-09T13:24:37;99723.63;;;17.81;46.03
59272;BME280;45043;51.068;7.026;2022-09-09T13:27:40;99721.13;;;17.59;46.82
59272;BME280;45043;51.068;7.026;2022-09-09T13:30:41;99717.59;;;17.53;47.39
59272;BME280;45043;51.068;7.026;2022-09-09T13:33:43;99714.66;;;17.55;47.09
59272;BME280;45043;51.068;7.026;2022-09-09T13:36:47;99716.50;;;17.49;47.21
59272;BME280;45043;51.068;7.026;2022-09-09T13:39:52;99709.75;;;17.41;47.43
59272;BME280;45043;51.068;7.026;2022-09-09T13:42:56;99710.25;;;17.38;48.17
59272;BME280;45043;51.068;7.026;2022-09-09T13:45:59;99698.94;;;17.31;48.77
59272;BME280;45043;51.068;7.026;2022-09-09T13:52:16;99709.31;;;17.65;49.30
59272;BME280;45043;51.068;7.026;2022-09-09T13:55:19;99701.56;;;17.74;49.40
59272;BME280;45043;51.068;7.026;2022-09-09T13:58:21;99702.94;;;17.81;49.02
59272;BME280;45043;51.068;7.026;2022-09-09T14:01:23;99698.13;;;17.88;48.82
59272;BME280;45043;51.068;7.026;2022-09-09T14:04:23;99693.00;;;17.82;49.88
59272;BME280;45043;51.068;7.026;2022-09-09T14:07:24;99684.66;;;17.73;49.38
59272;BME280;45043;51.068;7.026;2022-09-09T14:10:25;99689.47;;;17.71;50.58
59272;BME280;45043;51.068;7.026;2022-09-09T14:13:26;99682.72;;;17.63;49.86
59272;BME280;45043;51.068;7.026;2022-09-09T14:16:27;99683.81;;;17.62;51.11
59272;BME280;45043;51.068;7.026;2022-09-09T14:19:27;99681.88;;;17.58;50.21
59272;BME280;45043;51.068;7.026;2022-09-09T14:22:28;99685.13;;;17.60;50.99
59272;BME280;45043;51.068;7.026;2022-09-09T14:25:31;99693.94;;;17.50;51.08
59272;BME280;45043;51.068;7.026;2022-09-09T14:28:34;99718.88;;;17.40;51.25
59272;BME280;45043;51.068;7.026;2022-09-09T14:31:35;99704.78;;;17.18;53.09
59272;BME280;45043;51.068;7.026;2022-09-09T14:34:35;99737.75;;;16.81;53.99
59272;BME280;45043;51.068;7.026;2022-09-09T14:37:36;99737.09;;;16.37;54.57
59272;BME280;45043;51.068;7.026;2022-09-09T14:40:37;99721.28;;;15.91;56.01
59272;BME280;45043;51.068;7.026;2022-09-09T14:43:38;99730.00;;;15.60;56.73
59272;BME280;45043;51.068;7.026;2022-09-09T14:46:39;99707.13;;;15.35;57.39
59272;BME280;45043;51.068;7.026;2022-09-09T14:49:39;99715.03;;;15.25;57.77
59272;BME280;45043;51.068;7.026;2022-09-09T14:52:40;99713.81;;;15.16;57.99
59272;BME280;45043;51.068;7.026;2022-09-09T14:55:40;99713.66;;;15.05;57.80
59272;BME280;45043;51.068;7.026;2022-09-09T14:58:41;99712.00;;;14.99;57.74
59272;BME280;45043;51.068;7.026;2022-09-09T15:01:41;99722.84;;;14.93;57.82
59272;BME280;45043;51.068;7.026;2022-09-09T15:04:42;99719.59;;;15.08;57.51
59272;BME280;45043;51.068;7.026;2022-09-09T15:07:42;99726.19;;;15.39;56.16
59272;BME280;45043;51.068;7.026;2022-09-09T15:10:43;99720.19;;;15.48;55.15
59272;BME280;45043;51.068;7.026;2022-09-09T15:13:45;99709.72;;;15.47;55.35
59272;BME280;45043;51.068;7.026;2022-09-09T15:16:45;99719.09;;;15.66;55.74
59272;BME280;45043;51.068;7.026;2022-09-09T15:19:45;99719.59;;;15.85;54.88
59272;BME280;45043;51.068;7.026;2022-09-09T15:22:46;99723.56;;;16.05;54.90
59272;BME280;45043;51.068;7.026;2022-09-09T15:25:54;99727.44;;;16.14;55.31
59272;BME280;45043;51.068;7.026;2022-09-09T15:28:55;99725.06;;;16.17;55.16
59272;BME280;45043;51.068;7.026;2022-09-09T15:31:59;99718.47;;;16.30;54.77
59272;BME280;45043;51.068;7.026;2022-09-09T15:34:59;99724.19;;;16.34;54.95
59272;BME280;45043;51.068;7.026;2022-09-09T15:38:02;99720.06;;;16.26;55.39
59272;BME280;45043;51.068;7.026;2022-09-09T15:41:05;99713.22;;;16.13;55.74
59272;BME280;45043;51.068;7.026;2022-09-09T15:44:05;99713.59;;;16.22;55.28
59272;BME280;45043;51.068;7.026;2022-09-09T15:47:06;99712.84;;;16.32;55.58
59272;BME280;45043;51.068;7.026;2022-09-09T15:50:07;99719.97;;;16.43;55.05
59272;BME280;45043;51.068;7.026;2022-09-09T15:53:07;99713.09;;;17.69;52.21
59272;BME280;45043;51.068;7.026;2022-09-09T15:56:08;99708.00;;;18.76;50.19
59272;BME280;45043;51.068;7.026;2022-09-09T15:59:09;99715.22;;;18.60;50.86
59272;BME280;45043;51.068;7.026;2022-09-09T16:02:09;99704.44;;;18.35;50.30
59272;BME280;45043;51.068;7.026;2022-09-09T16:05:10;99724.59;;;18.27;50.80
59272;BME280;45043;51.068;7.026;2022-09-09T16:08:10;99737.44;;;18.05;50.68
59272;BME280;45043;51.068;7.026;2022-09-09T16:11:14;99732.69;;;18.58;50.73
59272;BME280;45043;51.068;7.026;2022-09-09T16:14:15;99734.22;;;18.08;49.95
59272;BME280;45043;51.068;7.026;2022-09-09T16:17:16;99743.56;;;17.42;51.11
59272;BME280;45043;51.068;7.026;2022-09-09T16:20:16;99746.44;;;16.93;52.20
59272;BME280;45043;51.068;7.026;2022-09-09T16:23:19;99755.28;;;16.62;52.81
59272;BME280;45043;51.068;7.026;2022-09-09T16:26:20;99744.72;;;16.28;54.35
59272;BME280;45043;51.068;7.026;2022-09-09T16:29:21;99741.25;;;16.06;54.60
59272;BME280;45043;51.068;7.026;2022-09-09T16:32:22;99748.63;;;15.93;54.64
59272;BME280;45043;51.068;7.026;2022-09-09T16:35:23;99743.63;;;15.80;55.07
59272;BME280;45043;51.068;7.026;2022-09-09T16:38:24;99748.56;;;15.66;54.93
59272;BME280;45043;51.068;7.026;2022-09-09T16:41:25;99750.28;;;15.56;54.90
59272;BME280;45043;51.068;7.026;2022-09-09T16:44:27;99755.88;;;15.54;54.97
59272;BME280;45043;51.068;7.026;2022-09-09T16:47:28;99744.75;;;15.62;54.58
59272;BME280;45043;51.068;7.026;2022-09-09T16:50:30;99749.31;;;15.62;55.00
59272;BME280;45043;51.068;7.026;2022-09-09T16:53:32;99750.75;;;15.69;54.53
59272;BME280;45043;51.068;7.026;2022-09-09T16:56:35;99755.47;;;16.06;53.97
59272;BME280;45043;51.068;7.026;2022-09-09T16:59:37;99740.84;;;17.00;52.04
59272;BME280;45043;51.068;7.026;2022-09-09T17:02:38;99737.00;;;18.54;49.27
59272;BME280;45043;51.068;7.026;2022-09-09T17:05:41;99748.34;;;19.17;47.64
59272;BME280;45043;51.068;7.026;2022-09-09T17:08:42;99760.72;;;19.13;47.80
59272;BME280;45043;51.068;7.026;2022-09-09T17:11:43;99757.50;;;18.90;48.21
59272;BME280;45043;51.068;7.026;2022-09-09T17:14:44;99750.53;;;18.84;48.27
59272;BME280;45043;51.068;7.026;2022-09-09T17:17:45;99760.75;;;18.93;47.86
59272;BME280;45043;51.068;7.026;2022-09-09T17:20:49;99760.47;;;18.74;47.96
59272;BME280;45043;51.068;7.026;2022-09-09T17:23:49;99778.66;;;18.26;49.61
59272;BME280;45043;51.068;7.026;2022-09-09T17:26:50;99784.72;;;17.96;50.46
59272;BME280;45043;51.068;7.026;2022-09-09T17:29:51;99781.00;;;17.59;50.69
59272;BME280;45043;51.068;7.026;2022-09-09T17:32:51;99789.03;;;17.17;51.59
59272;BME280;45043;51.068;7.026;2022-09-09T17:35:52;99783.91;;;16.83;53.01
59272;BME280;45043;51.068;7.026;2022-09-09T17:38:52;99775.09;;;16.61;53.19